Time;durP1;ratioP1;P1;durP2;ratioP2;P2;SDS_P1;SDS_P2;PMS_P1;PMS_P2;Temp;Humidity;BMP_temperature;BMP_pressure;BME280_temperature;BME280_humidity;BME280_pressure;Samples;Min_cycle;Max_cycle;Signal;HPM_P1;HPM_P2
2022/05/16 00:02:14;;;;;;;7.70;2.60;;;14.60;99.90;;;;;;5039947;28;20204;-73
2022/05/16 00:04:45;;;;;;;10.67;2.40;;;14.70;99.90;;;;;;5073745;28;20231;-73
2022/05/16 00:07:13;;;;;;;6.57;2.67;;;14.70;99.90;;;;;;5054885;28;20247;-73
2022/05/16 00:09:42;;;;;;;8.03;2.30;;;14.80;99.90;;;;;;5066810;28;20218;-73
2022/05/16 00:12:12;;;;;;;8.97;2.50;;;14.80;99.90;;;;;;5064340;28;20191;-73
2022/05/16 00:14:40;;;;;;;8.97;2.90;;;14.90;99.90;;;;;;5087157;28;20282;-73
2022/05/16 00:17:07;;;;;;;6.63;2.57;;;14.80;99.90;;;;;;5052784;28;20179;-73
2022/05/16 00:19:33;;;;;;;8.43;3.00;;;14.80;99.90;;;;;;5064060;28;20635;-73
2022/05/16 00:22:00;;;;;;;6.87;2.83;;;14.70;99.90;;;;;;5065888;28;20198;-73
2022/05/16 00:24:29;;;;;;;8.13;3.20;;;14.60;99.90;;;;;;5044965;28;20210;-73
2022/05/16 00:26:58;;;;;;;8.90;3.27;;;14.50;99.90;;;;;;5064139;28;20175;-72
2022/05/16 00:29:26;;;;;;;10.67;3.93;;;14.60;99.90;;;;;;5071148;28;20531;-73
2022/05/16 00:31:54;;;;;;;10.83;3.60;;;14.60;99.90;;;;;;5067896;28;20738;-73
2022/05/16 00:34:21;;;;;;;12.23;3.93;;;14.70;99.90;;;;;;5051201;28;20226;-73
2022/05/16 00:36:51;;;;;;;9.07;3.37;;;14.80;99.90;;;;;;5066283;28;20706;-73
2022/05/16 00:39:20;;;;;;;10.70;3.33;;;14.80;99.90;;;;;;5074557;28;20190;-73
2022/05/16 00:41:51;;;;;;;8.40;3.50;;;14.80;99.90;;;;;;5061047;28;20970;-73
2022/05/16 00:44:20;;;;;;;12.97;3.43;;;14.80;99.90;;;;;;5062498;28;20214;-73
2022/05/16 00:46:50;;;;;;;6.87;2.80;;;14.80;99.90;;;;;;5063548;28;20590;-73
2022/05/16 00:49:35;;;;;;;6.97;2.90;;;14.70;99.90;;;;;;5066860;28;20186;-73
2022/05/16 00:52:30;;;;;;;7.93;2.90;;;14.70;99.90;;;;;;5059690;28;20199;-73
2022/05/16 00:55:04;;;;;;;6.33;2.53;;;14.80;99.90;;;;;;5061862;28;20183;-73
2022/05/16 00:57:47;;;;;;;7.80;2.63;;;14.70;99.90;;;;;;5057586;28;20187;-73
2022/05/16 01:00:33;;;;;;;5.70;2.80;;;14.80;99.90;;;;;;5086904;28;20194;-73
2022/05/16 01:06:01;;;;;;;7.10;2.63;;;14.70;99.90;;;;;;5067559;28;20636;-73
2022/05/16 01:08:31;;;;;;;5.53;2.47;;;14.80;99.90;;;;;;5064632;28;20678;-73
2022/05/16 01:11:12;;;;;;;8.17;2.43;;;14.80;99.90;;;;;;5063595;28;20194;-73
2022/05/16 01:13:40;;;;;;;7.53;2.60;;;14.80;99.90;;;;;;5061844;28;20214;-73
2022/05/16 01:16:13;;;;;;;7.30;2.50;;;14.80;99.90;;;;;;5059647;28;20295;-73
2022/05/16 01:18:40;;;;;;;9.60;2.90;;;14.70;99.90;;;;;;5068270;28;20252;-73
2022/05/16 01:21:37;;;;;;;7.83;2.70;;;14.80;99.90;;;;;;5052654;28;20224;-73
2022/05/16 01:24:16;;;;;;;5.00;2.43;;;14.80;99.90;;;;;;5048341;28;20190;-73
2022/05/16 01:26:43;;;;;;;9.27;2.40;;;14.70;99.90;;;;;;5051535;28;20210;-73
2022/05/16 01:29:11;;;;;;;7.97;2.67;;;14.70;99.90;;;;;;5062831;28;20643;-73
2022/05/16 01:31:38;;;;;;;4.37;2.20;;;14.60;99.90;;;;;;5060932;28;20598;-73
2022/05/16 01:34:08;;;;;;;6.73;2.70;;;14.60;99.90;;;;;;5061770;28;20654;-73
2022/05/16 01:36:34;;;;;;;5.83;2.13;;;14.50;99.90;;;;;;5040575;28;21598;-73
2022/05/16 01:39:00;;;;;;;5.80;2.67;;;14.50;99.90;;;;;;5068874;28;20191;-73
2022/05/16 01:41:39;;;;;;;4.87;2.30;;;14.60;99.90;;;;;;5042860;28;20257;-73
2022/05/16 01:44:06;;;;;;;8.50;2.70;;;14.60;99.90;;;;;;5040318;28;20176;-73
2022/05/16 01:46:40;;;;;;;7.50;2.70;;;14.60;99.90;;;;;;5063111;28;20186;-73
2022/05/16 01:49:11;;;;;;;3.43;2.10;;;14.50;99.90;;;;;;5059444;28;20179;-73
2022/05/16 01:51:41;;;;;;;7.47;2.53;;;14.50;99.90;;;;;;5057217;28;20195;-73
2022/05/16 01:54:09;;;;;;;4.60;2.60;;;14.50;99.90;;;;;;5043673;28;20192;-73
2022/05/16 01:56:37;;;;;;;10.50;2.93;;;14.50;99.90;;;;;;5041264;28;20191;-73
2022/05/16 01:59:06;;;;;;;7.07;3.00;;;14.50;99.90;;;;;;5054292;28;20189;-73
2022/05/16 02:01:35;;;;;;;5.07;2.40;;;14.40;99.90;;;;;;5059289;28;20187;-73
2022/05/16 02:04:03;;;;;;;7.27;2.40;;;14.30;99.90;;;;;;5043334;28;20272;-73
2022/05/16 02:06:31;;;;;;;7.30;3.10;;;14.30;99.90;;;;;;5056391;28;20629;-73
2022/05/16 02:09:04;;;;;;;8.20;2.67;;;14.30;99.90;;;;;;5059781;28;20244;-73
2022/05/16 02:11:34;;;;;;;7.97;3.07;;;14.30;99.90;;;;;;5055603;28;20187;-73
2022/05/16 02:14:00;;;;;;;6.00;2.80;;;14.30;99.90;;;;;;5062637;28;20187;-73
2022/05/16 02:16:26;;;;;;;5.60;2.67;;;14.30;99.90;;;;;;5074963;28;20631;-73
2022/05/16 02:18:53;;;;;;;6.47;2.77;;;14.30;99.90;;;;;;5066507;28;20213;-73
2022/05/16 02:26:52;;;;;;;4.60;2.50;;;14.20;99.90;;;;;;5063775;28;20187;-73
2022/05/16 02:29:19;;;;;;;8.03;3.43;;;14.20;99.90;;;;;;5044012;28;20233;-73
2022/05/16 02:31:46;;;;;;;6.90;2.57;;;14.20;99.90;;;;;;5060995;28;20215;-73
2022/05/16 02:34:19;;;;;;;6.93;2.70;;;14.30;99.90;;;;;;5079942;28;20902;-73
2022/05/16 02:36:45;;;;;;;5.40;2.67;;;14.30;99.90;;;;;;5046327;28;20232;-73
2022/05/16 02:39:15;;;;;;;6.10;3.00;;;14.30;99.90;;;;;;5065589;28;20215;-73
2022/05/16 02:41:42;;;;;;;7.80;3.00;;;14.30;99.90;;;;;;5062486;28;20187;-72
2022/05/16 02:44:09;;;;;;;10.17;2.80;;;14.40;99.90;;;;;;5061443;28;20785;-73
2022/05/16 02:46:37;;;;;;;5.80;2.53;;;14.40;99.90;;;;;;5064539;28;20179;-73
2022/05/16 02:49:04;;;;;;;15.30;2.63;;;14.40;99.90;;;;;;5060920;28;20186;-73
2022/05/16 02:51:31;;;;;;;8.97;2.77;;;14.40;99.90;;;;;;5027129;28;20194;-73
2022/05/16 02:53:58;;;;;;;5.50;2.40;;;14.40;99.90;;;;;;5043150;28;20179;-73
2022/05/16 02:56:25;;;;;;;6.77;2.53;;;14.40;99.90;;;;;;5068283;28;20187;-73
2022/05/16 02:58:54;;;;;;;6.00;2.60;;;14.30;99.90;;;;;;5072227;28;20183;-73
2022/05/16 03:01:23;;;;;;;6.33;2.90;;;14.30;99.90;;;;;;5058066;28;20329;-73
2022/05/16 03:03:50;;;;;;;5.17;2.80;;;14.30;99.90;;;;;;5055061;28;20206;-73
2022/05/16 03:06:18;;;;;;;7.97;2.77;;;14.30;99.90;;;;;;5061610;28;20264;-73
2022/05/16 03:08:45;;;;;;;6.93;2.57;;;14.30;99.90;;;;;;5057853;28;21007;-73
2022/05/16 03:11:14;;;;;;;6.30;2.77;;;14.30;99.90;;;;;;5060604;28;20218;-73
2022/05/16 03:13:41;;;;;;;9.37;2.47;;;14.30;99.90;;;;;;5045551;28;20666;-73
2022/05/16 03:16:08;;;;;;;8.03;2.87;;;14.30;99.90;;;;;;5059943;28;20194;-73
2022/05/16 03:18:35;;;;;;;11.37;3.07;;;14.30;99.90;;;;;;5048586;28;20206;-72
2022/05/16 03:21:01;;;;;;;5.30;2.70;;;14.30;99.90;;;;;;5052630;28;20199;-73
2022/05/16 03:23:27;;;;;;;8.20;2.80;;;14.40;99.90;;;;;;5060774;28;20763;-73
2022/05/16 03:25:54;;;;;;;7.57;2.50;;;14.40;99.90;;;;;;5047592;28;20216;-73
2022/05/16 03:28:21;;;;;;;8.63;2.90;;;14.40;99.90;;;;;;5063489;28;20190;-73
2022/05/16 03:30:48;;;;;;;7.93;2.67;;;14.40;99.90;;;;;;5078912;28;20218;-73
2022/05/16 03:33:19;;;;;;;8.40;2.83;;;14.40;99.90;;;;;;5050629;28;20733;-73
2022/05/16 03:35:45;;;;;;;5.37;2.53;;;14.50;99.90;;;;;;5072677;28;20191;-73
2022/05/16 03:40:41;;;;;;;8.50;2.27;;;14.50;99.90;;;;;;5065659;28;20197;-73
2022/05/16 03:40:58;;;;;;;7.77;2.80;;;14.50;99.90;;;;;;5055996;28;20195;-73
2022/05/16 03:43:26;;;;;;;5.43;2.27;;;14.50;99.90;;;;;;5061291;28;20554;-73
2022/05/16 03:45:52;;;;;;;6.97;2.63;;;14.60;99.90;;;;;;5063951;28;20234;-73
2022/05/16 03:48:19;;;;;;;6.97;2.83;;;14.60;99.90;;;;;;5077323;28;20190;-73
2022/05/16 03:50:47;;;;;;;12.80;2.50;;;14.60;99.90;;;;;;5067370;28;20190;-73
2022/05/16 03:53:14;;;;;;;7.90;2.80;;;14.60;99.90;;;;;;5064602;28;20254;-73
2022/05/16 03:55:40;;;;;;;7.07;2.20;;;14.70;99.90;;;;;;5045278;28;20191;-73
2022/05/16 03:58:07;;;;;;;7.87;2.60;;;14.60;99.90;;;;;;5067483;28;20197;-73
2022/05/16 04:00:34;;;;;;;11.30;2.83;;;14.60;99.90;;;;;;5063993;28;20249;-73
2022/05/16 04:03:01;;;;;;;7.13;2.30;;;14.70;99.90;;;;;;5049817;28;20252;-73
2022/05/16 04:05:27;;;;;;;8.03;2.67;;;14.70;99.90;;;;;;5068107;28;20210;-73
2022/05/16 04:07:56;;;;;;;5.93;2.50;;;14.70;99.90;;;;;;5052410;28;20540;-73
2022/05/16 04:10:26;;;;;;;6.80;2.33;;;14.70;99.90;;;;;;5080291;28;20189;-73
2022/05/16 04:12:53;;;;;;;6.27;2.43;;;14.70;99.90;;;;;;5045254;28;20269;-73
2022/05/16 04:15:21;;;;;;;10.17;2.73;;;14.80;99.90;;;;;;5070978;28;20292;-73
2022/05/16 04:17:49;;;;;;;15.63;2.90;;;14.90;99.90;;;;;;5081102;28;20549;-73
2022/05/16 04:20:18;;;;;;;6.43;2.37;;;14.90;99.90;;;;;;5051552;28;20222;-73
2022/05/16 04:22:45;;;;;;;11.27;2.60;;;15.00;99.90;;;;;;5060842;28;20646;-73
2022/05/16 04:25:17;;;;;;;8.40;2.33;;;15.00;99.90;;;;;;5069158;28;20578;-73
2022/05/16 04:27:43;;;;;;;10.17;2.30;;;15.10;99.90;;;;;;5076384;28;20263;-73
2022/05/16 04:30:14;;;;;;;9.20;2.70;;;15.10;99.90;;;;;;5060003;28;20297;-73
2022/05/16 04:32:44;;;;;;;9.63;2.93;;;15.20;99.90;;;;;;5058533;28;20221;-73
2022/05/16 04:35:13;;;;;;;8.50;2.37;;;15.30;99.90;;;;;;5044080;28;20191;-73
2022/05/16 04:37:40;;;;;;;7.47;2.60;;;15.40;99.90;;;;;;5072996;28;20210;-73
2022/05/16 04:40:10;;;;;;;6.30;2.40;;;15.40;99.90;;;;;;5067836;28;20221;-73
2022/05/16 04:42:41;;;;;;;9.73;2.53;;;15.50;99.90;;;;;;5037297;28;20187;-73
2022/05/16 04:45:23;;;;;;;6.77;2.77;;;15.60;99.90;;;;;;5044826;28;20606;-73
2022/05/16 04:47:55;;;;;;;8.57;2.60;;;15.70;99.90;;;;;;5041871;28;20183;-73
2022/05/16 04:50:31;;;;;;;12.00;2.90;;;15.80;99.90;;;;;;5057051;28;20738;-73
2022/05/16 04:52:59;;;;;;;6.97;2.73;;;15.90;99.90;;;;;;5022761;28;20716;-73
2022/05/16 04:55:29;;;;;;;7.23;2.37;;;16.00;99.90;;;;;;5058210;28;20182;-73
2022/05/16 04:57:57;;;;;;;5.00;2.57;;;16.00;99.90;;;;;;5041251;28;20187;-73
2022/05/16 05:00:28;;;;;;;8.97;2.50;;;16.10;99.90;;;;;;5043174;28;20555;-73
2022/05/16 05:02:57;;;;;;;7.83;2.80;;;16.10;99.90;;;;;;5022848;28;20191;-72
2022/05/16 05:05:24;;;;;;;6.43;2.60;;;16.20;99.90;;;;;;5061594;28;20832;-73
2022/05/16 05:07:51;;;;;;;7.60;2.60;;;16.30;99.90;;;;;;5066499;28;20194;-73
2022/05/16 05:16:12;;;;;;;4.67;2.20;;;16.60;99.90;;;;;;5065450;28;20273;-73
2022/05/16 05:18:40;;;;;;;8.47;2.57;;;16.70;99.90;;;;;;5060455;28;20205;-73
2022/05/16 05:21:12;;;;;;;8.17;2.60;;;16.70;99.90;;;;;;5063618;28;20289;-73
2022/05/16 05:23:40;;;;;;;5.23;2.20;;;16.80;99.90;;;;;;5063393;28;20187;-73
2022/05/16 05:26:09;;;;;;;8.20;2.20;;;16.80;99.90;;;;;;5065799;28;20246;-73
2022/05/16 05:28:37;;;;;;;8.80;2.33;;;16.80;99.90;;;;;;5063077;28;20186;-73
2022/05/16 05:31:05;;;;;;;7.80;2.47;;;16.80;99.90;;;;;;5061345;28;20682;-73
2022/05/16 05:33:31;;;;;;;11.37;2.40;;;16.90;99.90;;;;;;5064657;28;20265;-73
2022/05/16 05:35:57;;;;;;;8.50;2.30;;;17.20;99.90;;;;;;5055015;28;20193;-73
2022/05/16 05:38:25;;;;;;;14.13;2.50;;;17.40;99.90;;;;;;5067517;28;20293;-73
2022/05/16 05:40:51;;;;;;;9.17;2.40;;;17.60;99.90;;;;;;5069565;28;20216;-73
2022/05/16 05:43:18;;;;;;;8.27;2.50;;;17.70;99.90;;;;;;5051206;28;20179;-73
2022/05/16 05:45:44;;;;;;;8.73;2.80;;;17.80;99.90;;;;;;5058352;28;20222;-73
2022/05/16 05:48:11;;;;;;;7.40;2.80;;;17.90;99.90;;;;;;5059962;28;20228;-73
2022/05/16 05:50:38;;;;;;;6.30;2.67;;;18.00;99.90;;;;;;5053890;28;20244;-73
2022/05/16 05:53:04;;;;;;;6.83;2.30;;;18.10;99.90;;;;;;5056265;28;20198;-73
2022/05/16 05:55:31;;;;;;;9.00;2.50;;;18.10;99.90;;;;;;5060825;28;20210;-73
2022/05/16 05:57:58;;;;;;;7.73;2.90;;;18.10;99.90;;;;;;5064378;28;20214;-73
2022/05/16 06:00:25;;;;;;;10.57;2.80;;;18.20;99.90;;;;;;5063830;28;20285;-73
2022/05/16 06:02:52;;;;;;;7.13;2.13;;;18.20;99.90;;;;;;5061085;28;20217;-72
2022/05/16 06:05:22;;;;;;;7.23;2.50;;;18.20;99.90;;;;;;5060147;28;21355;-72
2022/05/16 06:07:48;;;;;;;8.80;2.63;;;18.30;99.90;;;;;;5079893;28;20194;-72
2022/05/16 06:10:15;;;;;;;8.33;2.43;;;18.30;99.90;;;;;;5077491;28;20180;-72
2022/05/16 06:12:42;;;;;;;9.37;2.60;;;18.30;99.90;;;;;;5059969;28;20188;-72
2022/05/16 06:15:10;;;;;;;5.10;2.30;;;18.40;99.90;;;;;;5052272;28;20207;-72
2022/05/16 06:17:38;;;;;;;10.13;2.77;;;18.50;99.90;;;;;;5040979;28;20193;-72
2022/05/16 06:20:08;;;;;;;7.97;2.57;;;18.50;99.90;;;;;;5038921;28;20207;-72
2022/05/16 06:22:35;;;;;;;11.93;3.07;;;18.60;99.90;;;;;;5053882;28;20253;-73
2022/05/16 06:25:33;;;;;;;5.77;2.40;;;18.70;99.90;;;;;;5056857;28;20219;-73
2022/05/16 06:28:12;;;;;;;8.27;2.23;;;18.90;99.90;;;;;;5064004;28;20236;-72
2022/05/16 06:30:43;;;;;;;6.50;1.93;;;19.10;99.90;;;;;;5038695;28;20247;-72
2022/05/16 06:33:13;;;;;;;5.57;2.00;;;19.30;99.90;;;;;;5051856;28;20634;-72
2022/05/16 06:35:49;;;;;;;5.17;2.00;;;19.60;99.90;;;;;;5059771;28;20215;-73
2022/05/16 06:38:29;;;;;;;6.60;2.13;;;19.70;99.90;;;;;;5052999;28;20274;-72
2022/05/16 06:40:58;;;;;;;7.47;1.87;;;19.80;99.90;;;;;;5054409;28;20259;-73
2022/05/16 06:43:34;;;;;;;5.90;2.27;;;19.90;99.90;;;;;;5065292;28;20194;-72
2022/05/16 06:46:02;;;;;;;6.00;2.10;;;19.90;99.90;;;;;;5049165;28;20630;-73
2022/05/16 06:48:30;;;;;;;7.87;2.20;;;20.00;99.90;;;;;;5045956;28;20934;-73
2022/05/16 06:50:57;;;;;;;8.40;2.20;;;20.00;99.90;;;;;;5051239;28;20192;-72
2022/05/16 06:53:32;;;;;;;6.33;2.30;;;20.10;99.90;;;;;;5055834;28;22008;-73
2022/05/16 06:56:00;;;;;;;8.60;2.07;;;20.30;99.90;;;;;;5052391;28;20207;-72
2022/05/16 06:58:29;;;;;;;6.63;2.17;;;20.30;99.90;;;;;;5048954;28;20191;-73
2022/05/16 07:00:58;;;;;;;5.73;2.00;;;20.30;99.90;;;;;;5037692;28;20199;-72
2022/05/16 07:03:24;;;;;;;7.90;1.80;;;20.40;99.90;;;;;;5041653;28;20198;-72
2022/05/16 07:05:55;;;;;;;5.37;2.00;;;20.50;99.90;;;;;;5066107;28;20210;-72
2022/05/16 07:08:23;;;;;;;7.53;2.10;;;20.60;99.90;;;;;;5054086;28;20345;-73
2022/05/16 07:10:51;;;;;;;10.67;2.10;;;20.80;99.90;;;;;;5054365;28;20545;-72
2022/05/16 07:13:19;;;;;;;4.47;1.90;;;20.90;99.90;;;;;;5041997;28;20217;-72
2022/05/16 07:15:46;;;;;;;5.43;1.80;;;21.00;99.90;;;;;;5054348;28;20191;-74
2022/05/16 07:18:12;;;;;;;9.23;1.97;;;21.20;99.90;;;;;;5046771;28;22436;-73
2022/05/16 07:20:45;;;;;;;4.83;1.80;;;21.20;99.90;;;;;;5069886;28;20666;-73
2022/05/16 07:23:11;;;;;;;7.93;1.90;;;21.30;99.90;;;;;;5062592;28;20575;-73
2022/05/16 07:28:24;;;;;;;6.55;1.98;;;21.50;99.90;;;;;;5054432;28;20197;-73
2022/05/16 07:30:51;;;;;;;4.87;2.10;;;21.70;99.90;;;;;;5069065;28;20693;-73
2022/05/16 07:33:21;;;;;;;9.27;2.30;;;21.90;99.90;;;;;;5058353;28;20190;-73
2022/05/16 07:35:50;;;;;;;6.90;2.60;;;22.00;99.90;;;;;;5047912;28;20241;-73
2022/05/16 07:38:19;;;;;;;19.70;3.95;;;21.90;99.90;;;;;;5061496;28;20198;-73
2022/05/16 07:40:46;;;;;;;9.85;2.30;;;22.10;99.90;;;;;;5030512;28;20205;-73
2022/05/16 07:43:12;;;;;;;14.38;2.55;;;22.30;99.90;;;;;;5061206;28;20183;-73
2022/05/16 07:45:42;;;;;;;4.90;2.08;;;22.50;99.90;;;;;;5061441;28;20229;-74
2022/05/16 07:48:09;;;;;;;8.88;2.40;;;22.30;99.90;;;;;;5073117;28;20191;-73
2022/05/16 07:50:39;;;;;;;7.35;1.92;;;22.40;99.90;;;;;;5048863;28;20191;-73
2022/05/16 07:53:13;;;;;;;7.32;2.03;;;22.50;99.90;;;;;;5034246;28;20218;-73
2022/05/16 07:55:49;;;;;;;7.88;2.10;;;22.50;99.90;;;;;;5046949;28;20187;-73
2022/05/16 07:58:16;;;;;;;6.93;2.03;;;22.70;99.90;;;;;;5069843;28;20209;-74
2022/05/16 08:00:43;;;;;;;11.30;2.55;;;22.80;99.90;;;;;;5065120;28;20253;-73
2022/05/16 08:03:19;;;;;;;6.82;1.90;;;23.00;99.90;;;;;;5060582;28;20184;-74
2022/05/16 08:05:46;;;;;;;8.52;2.40;;;23.00;99.90;;;;;;5072379;28;20240;-74
2022/05/16 08:11:02;;;;;;;8.27;2.33;;;23.20;99.90;;;;;;5045169;28;20264;-73
2022/05/16 08:13:33;;;;;;;5.18;2.15;;;23.20;99.90;;;;;;5043732;28;20634;-73
2022/05/16 08:15:59;;;;;;;8.05;2.38;;;23.20;99.90;;;;;;5043104;28;20530;-74
2022/05/16 08:18:29;;;;;;;7.97;2.45;;;23.30;99.90;;;;;;5045241;28;20193;-73
2022/05/16 08:20:55;;;;;;;6.43;2.38;;;23.30;99.90;;;;;;5043934;28;20216;-74
2022/05/16 08:23:29;;;;;;;7.55;2.53;;;23.40;99.90;;;;;;5049035;28;20195;-73
2022/05/16 08:26:01;;;;;;;8.07;2.60;;;23.50;99.90;;;;;;5058174;28;20218;-74
2022/05/16 08:28:28;;;;;;;4.30;2.17;;;23.50;99.90;;;;;;5046590;28;20191;-74
2022/05/16 08:30:54;;;;;;;7.47;3.05;;;23.60;99.90;;;;;;5061294;28;21913;-73
2022/05/16 08:33:21;;;;;;;12.73;3.33;;;23.60;99.90;;;;;;5040623;28;20261;-73
2022/05/16 08:39:52;;;;;;;9.48;3.17;;;23.80;99.90;;;;;;5040283;28;20270;-73
2022/05/16 08:41:29;;;;;;;8.15;2.90;;;23.80;99.90;;;;;;5066735;28;20198;-73
2022/05/16 08:44:20;;;;;;;9.57;3.38;;;23.80;99.90;;;;;;5039302;28;20236;-73
2022/05/16 08:47:21;;;;;;;7.60;3.08;;;23.90;99.90;;;;;;5069837;28;20651;-73
2022/05/16 08:49:59;;;;;;;13.80;3.65;;;23.80;99.90;;;;;;5012646;28;20276;-72
2022/05/16 08:52:58;;;;;;;10.20;2.95;;;24.00;99.90;;;;;;5055069;28;20221;-73
2022/05/16 08:55:40;;;;;;;9.88;3.00;;;24.00;99.90;;;;;;5064745;28;20187;-73
2022/05/16 08:58:40;;;;;;;9.45;3.47;;;24.10;99.90;;;;;;5062609;28;20221;-73
2022/05/16 09:01:16;;;;;;;10.50;3.10;;;24.20;99.90;;;;;;5056544;28;20524;-73
2022/05/16 09:04:04;;;;;;;6.28;2.50;;;24.20;99.90;;;;;;5059365;28;20186;-73
2022/05/16 09:06:51;;;;;;;6.93;3.17;;;24.30;99.90;;;;;;5066492;28;20221;-73
2022/05/16 09:09:25;;;;;;;9.35;3.00;;;24.30;99.90;;;;;;5023125;28;20273;-73
2022/05/16 09:12:27;;;;;;;10.90;3.33;;;24.30;99.90;;;;;;5069740;28;20202;-73
2022/05/16 09:15:17;;;;;;;11.82;3.33;;;24.40;99.90;;;;;;5024488;28;20194;-74
2022/05/16 09:18:33;;;;;;;13.18;3.13;;;24.60;99.90;;;;;;5043161;28;20191;-73
2022/05/16 09:21:43;;;;;;;6.75;2.75;;;24.80;99.90;;;;;;5032674;28;20207;-73
2022/05/16 09:24:16;;;;;;;8.45;2.63;;;24.80;99.90;;;;;;5056585;28;20202;-73
2022/05/16 09:27:09;;;;;;;9.88;2.60;;;24.90;99.90;;;;;;5058074;28;20191;-73
2022/05/16 09:29:45;;;;;;;9.35;2.70;;;25.10;99.90;;;;;;5063672;28;20183;-73
2022/05/16 09:32:30;;;;;;;7.10;2.38;;;25.10;99.90;;;;;;5028332;28;20290;-73
2022/05/16 09:34:58;;;;;;;11.23;2.55;;;25.10;99.90;;;;;;5057975;28;20221;-72
2022/05/16 09:37:25;;;;;;;6.72;2.55;;;25.20;99.90;;;;;;5076954;28;20281;-73
2022/05/16 09:39:53;;;;;;;10.18;2.30;;;25.40;99.90;;;;;;5066274;28;20237;-73
2022/05/16 09:42:26;;;;;;;6.72;2.10;;;25.40;99.90;;;;;;5066359;28;20198;-73
2022/05/16 09:45:13;;;;;;;8.45;2.80;;;25.40;99.90;;;;;;5055673;28;20254;-73
2022/05/16 09:47:46;;;;;;;6.85;2.40;;;25.50;99.90;;;;;;5056375;28;20194;-73
2022/05/16 09:50:27;;;;;;;10.93;2.75;;;25.60;99.90;;;;;;5041227;28;20282;-73
2022/05/16 09:53:07;;;;;;;6.70;2.40;;;25.70;99.90;;;;;;5065438;28;20187;-72
2022/05/16 09:55:58;;;;;;;6.72;2.28;;;25.70;99.90;;;;;;5065132;28;20197;-72
2022/05/16 09:58:37;;;;;;;7.47;2.75;;;25.70;99.90;;;;;;5065686;28;20244;-72
2022/05/16 10:01:12;;;;;;;5.95;2.03;;;25.90;99.90;;;;;;5054126;28;20190;-72
2022/05/16 10:03:49;;;;;;;5.78;2.67;;;25.90;99.90;;;;;;5039732;28;20562;-73
2022/05/16 10:06:37;;;;;;;6.47;2.20;;;25.90;99.90;;;;;;5051475;28;20238;-73
2022/05/16 10:09:30;;;;;;;6.40;2.63;;;26.00;99.90;;;;;;5046839;28;20195;-73
2022/05/16 10:11:57;;;;;;;10.02;2.97;;;26.00;99.90;;;;;;5050242;28;20188;-73
2022/05/16 10:14:24;;;;;;;12.18;3.38;;;26.00;99.90;;;;;;5058191;28;20222;-73
2022/05/16 10:16:53;;;;;;;9.95;2.88;;;25.90;99.90;;;;;;5021441;28;20182;-73
2022/05/16 10:19:27;;;;;;;8.30;3.10;;;26.00;99.90;;;;;;5055469;28;20712;-73
2022/05/16 10:22:02;;;;;;;37.92;5.57;;;26.00;99.90;;;;;;5053801;28;20308;-73
2022/05/16 10:24:38;;;;;;;10.90;3.08;;;26.00;99.90;;;;;;5043917;28;20217;-73
2022/05/16 10:27:11;;;;;;;13.13;3.78;;;26.00;99.90;;;;;;5042463;28;20198;-73
2022/05/16 10:29:52;;;;;;;11.88;3.13;;;26.00;99.90;;;;;;5055856;28;20179;-73
2022/05/16 10:35:35;;;;;;;9.07;3.35;;;26.00;99.90;;;;;;5059949;28;20179;-74
2022/05/16 10:38:15;;;;;;;12.30;3.45;;;25.90;99.90;;;;;;5034826;28;20566;-74
2022/05/16 10:40:56;;;;;;;13.80;4.03;;;25.80;99.90;;;;;;5056295;28;20198;-74
2022/05/16 10:44:26;;;;;;;12.70;3.78;;;25.90;99.90;;;;;;5059487;28;20832;-74
2022/05/16 10:47:30;;;;;;;10.68;3.70;;;25.70;99.90;;;;;;4997290;28;20353;-73
2022/05/16 10:50:17;;;;;;;13.80;3.17;;;25.70;99.90;;;;;;5001011;28;20313;-73
2022/05/16 10:53:10;;;;;;;14.65;3.88;;;25.60;99.90;;;;;;5048434;28;20187;-73
2022/05/16 10:56:47;;;;;;;11.73;3.35;;;25.60;99.90;;;;;;5058390;28;20640;-74
2022/05/16 10:59:36;;;;;;;10.02;3.85;;;25.40;99.90;;;;;;5069541;28;20264;-74
2022/05/16 11:02:41;;;;;;;13.10;3.75;;;25.40;99.90;;;;;;5066539;28;20190;-73
2022/05/16 11:05:45;;;;;;;12.82;4.10;;;25.50;99.90;;;;;;5072374;28;20237;-73
2022/05/16 11:08:36;;;;;;;11.73;3.55;;;25.50;99.90;;;;;;5070661;28;20209;-73
2022/05/16 11:11:28;;;;;;;12.02;3.95;;;25.40;99.90;;;;;;5049168;28;20217;-74
2022/05/16 11:14:38;;;;;;;14.88;4.03;;;25.30;99.90;;;;;;5031699;28;20195;-73
2022/05/16 11:17:38;;;;;;;17.05;4.45;;;25.20;99.90;;;;;;5055276;28;20695;-73
2022/05/16 11:20:19;;;;;;;15.18;3.92;;;25.30;99.90;;;;;;5054430;28;20203;-73
2022/05/16 11:23:10;;;;;;;10.57;4.10;;;25.30;99.90;;;;;;5055659;28;20207;-73
2022/05/16 11:26:01;;;;;;;13.07;3.97;;;25.30;99.90;;;;;;5064315;28;20229;-72
2022/05/16 11:29:38;;;;;;;12.30;3.20;;;25.20;99.90;;;;;;5035774;28;20307;-73
2022/05/16 11:32:07;;;;;;;8.50;2.90;;;25.20;99.90;;;;;;5032212;28;20210;-73
2022/05/16 11:35:17;;;;;;;8.23;3.33;;;25.20;99.90;;;;;;5053800;28;20281;-73
2022/05/16 11:38:47;;;;;;;7.28;3.55;;;25.10;99.90;;;;;;5068242;28;20210;-73
2022/05/16 11:42:08;;;;;;;10.75;3.42;;;25.20;99.90;;;;;;5038094;28;20221;-73
2022/05/16 11:44:58;;;;;;;11.68;3.78;;;25.20;99.90;;;;;;5061146;28;20237;-72
2022/05/16 11:48:02;;;;;;;17.23;4.53;;;25.20;99.90;;;;;;5035278;28;20215;-72
2022/05/16 11:50:50;;;;;;;17.02;4.18;;;25.20;99.90;;;;;;5016610;28;20221;-73
2022/05/16 11:53:53;;;;;;;10.27;3.70;;;25.20;99.90;;;;;;5065853;28;20213;-73
2022/05/16 12:02:17;;;;;;;7.95;2.97;;;24.90;99.90;;;;;;5054032;28;20183;-73
2022/05/16 12:04:52;;;;;;;14.30;4.10;;;25.00;99.90;;;;;;5043543;28;21135;-73
2022/05/16 12:07:42;;;;;;;15.77;4.03;;;25.00;99.90;;;;;;5071751;28;20198;-73
2022/05/16 12:10:16;;;;;;;12.95;3.78;;;24.90;99.90;;;;;;5079490;28;20261;-73
2022/05/16 12:12:48;;;;;;;15.15;3.90;;;24.90;99.90;;;;;;5036335;28;20188;-73
2022/05/16 12:15:23;;;;;;;12.65;3.55;;;24.80;99.90;;;;;;5070878;28;20240;-73
2022/05/16 12:18:04;;;;;;;14.02;3.70;;;24.70;99.90;;;;;;5056692;28;20711;-72
2022/05/16 12:20:58;;;;;;;15.43;3.97;;;24.70;99.90;;;;;;5060733;28;20210;-73
2022/05/16 12:23:52;;;;;;;13.13;3.90;;;24.60;99.90;;;;;;5062482;28;20210;-73
2022/05/16 12:26:28;;;;;;;12.98;3.97;;;24.60;99.90;;;;;;5063288;28;20302;-72
2022/05/16 12:29:10;;;;;;;13.35;4.00;;;24.70;99.90;;;;;;5060362;28;20574;-73
2022/05/16 12:31:48;;;;;;;14.13;3.45;;;24.50;99.90;;;;;;5048526;28;20206;-72
2022/05/16 12:34:35;;;;;;;13.55;3.60;;;24.50;99.90;;;;;;5055995;28;20213;-72
2022/05/16 12:37:13;;;;;;;17.55;3.53;;;24.40;99.90;;;;;;5028829;28;20199;-72
2022/05/16 12:40:07;;;;;;;8.55;3.20;;;24.40;99.90;;;;;;5064414;28;20729;-73
2022/05/16 12:43:22;;;;;;;9.20;3.40;;;24.40;99.90;;;;;;5066069;28;20192;-73
2022/05/16 12:46:17;;;;;;;14.23;3.60;;;24.40;99.90;;;;;;5054836;28;20606;-72
2022/05/16 12:49:18;;;;;;;13.52;4.20;;;24.30;99.90;;;;;;5045292;28;20237;-72
2022/05/16 12:52:41;;;;;;;11.13;3.28;;;24.40;99.90;;;;;;5071127;28;20201;-73
2022/05/16 12:56:01;;;;;;;12.63;3.42;;;24.40;99.90;;;;;;5021375;28;20199;-73
2022/05/16 12:59:20;;;;;;;11.27;3.65;;;24.30;99.90;;;;;;5055316;28;20255;-73
2022/05/16 13:02:12;;;;;;;8.25;3.53;;;24.30;99.90;;;;;;5036761;28;20202;-73
2022/05/16 13:05:13;;;;;;;15.30;3.58;;;24.30;99.90;;;;;;5054287;28;20211;-72
2022/05/16 13:08:07;;;;;;;12.13;3.42;;;24.30;99.90;;;;;;5045335;28;20187;-72
2022/05/16 13:11:06;;;;;;;9.65;3.33;;;24.30;99.90;;;;;;5042423;28;20632;-73
2022/05/16 13:14:05;;;;;;;15.25;3.80;;;24.30;99.90;;;;;;5066730;28;20237;-72
2022/05/16 13:16:55;;;;;;;7.85;4.22;;;24.30;99.90;;;;;;5041308;28;20322;-72
2022/05/16 13:19:28;;;;;;;13.07;3.50;;;24.40;99.90;;;;;;5055641;28;20742;-72
2022/05/16 13:22:10;;;;;;;13.30;3.70;;;24.40;99.90;;;;;;5038071;28;20192;-72
2022/05/16 13:24:37;;;;;;;10.20;3.20;;;24.40;99.90;;;;;;5069287;28;20187;-74
2022/05/16 13:29:54;;;;;;;16.80;3.70;;;24.30;99.90;;;;;;5059516;28;20189;-72
2022/05/16 13:32:29;;;;;;;64.55;7.60;;;24.30;99.90;;;;;;5059245;28;20662;-72
2022/05/16 13:34:59;;;;;;;18.67;3.58;;;24.30;99.90;;;;;;5059092;28;20191;-72
2022/05/16 13:37:46;;;;;;;17.30;3.80;;;24.30;99.90;;;;;;5036749;28;20206;-72
2022/05/16 13:40:34;;;;;;;12.82;3.40;;;24.30;99.90;;;;;;5072095;28;20186;-72
2022/05/16 13:43:14;;;;;;;26.52;4.03;;;24.20;99.90;;;;;;5058377;28;20727;-72
2022/05/16 13:45:42;;;;;;;8.32;3.05;;;24.10;99.90;;;;;;5058767;28;21032;-72
2022/05/16 13:48:16;;;;;;;9.95;3.13;;;24.10;99.90;;;;;;5043869;28;20898;-72
2022/05/16 13:50:44;;;;;;;11.93;3.55;;;24.20;99.90;;;;;;5072402;28;20187;-72
2022/05/16 13:53:26;;;;;;;23.15;3.65;;;24.20;99.90;;;;;;5052882;28;20198;-72
2022/05/16 13:55:58;;;;;;;13.88;3.10;;;24.10;99.90;;;;;;5040808;28;20703;-73
2022/05/16 13:58:31;;;;;;;26.30;4.15;;;24.10;99.90;;;;;;5054132;28;20190;-73
2022/05/16 14:01:34;;;;;;;20.92;4.75;;;24.10;99.90;;;;;;5056914;28;20214;-73
2022/05/16 14:04:14;;;;;;;14.73;3.50;;;24.00;99.90;;;;;;4986778;28;20291;-72